Ardonia, NY

3:10 PM EDT on August 02, 2015 (GMT -0400)
Highgait Farm | | Change Station
CLOSE
Current Station
Personal Weather Station
Location: Clintondale, NY
Elevation: 715 ft
Nearby Weather Stations

Elev 715 ft 41.67 °N, 74.06 °W | Updated 6 minutes ago

Partly Cloudy
Partly Cloudy
88.9 °F
Feels Like 88 °F
N
4.7
Wind Variable Wind from West

Today
High -- | Low -- °F
--% Chance of Precip.
Yesterday
High -- | Low -- °F
Precip. -- in
5:51 AM 8:13 PM
Waning Gibbous, 92% visible
Pressure 29.87 in
Visibility 10.0 miles
Clouds Clear
Heat Index 88 °F
Dew Point 57 °F
Humidity 34%
Rainfall 0.00 in
Snow Depth Not available.
UV 9 out of 12
Pollen 7.10 out of 12
Air Quality Not available.
Flu Activity Not available.
SPECI KPOU 021901Z VRB06KT 10SM CLR 31/11 A2987 RMK AO2 T03060106

More Conditions Fewer Conditions

Pressure 29.87 in
Visibility 10.0 miles
Clouds Clear
Heat Index 88 °F
Dew Point 57 °F
Humidity 34%
Rainfall 0.00 in
Snow Depth Not available.
UV 9 out of 12
Pollen 7.10 out of 12
Air Quality Not available.
Flu Activity Not available.
SPECI KPOU 021901Z VRB06KT 10SM CLR 31/11 A2987 RMK AO2 T03060106

More Conditions Fewer Conditions

10-Day Weather Forecast

×

Almanac

Astronomy

Aug. 02, 2015 Rise Set
Actual Time
Civil Twilight
Nautical Twilight
Astronomical Twilight
Moon
Length of Visible Light
Length of Day
Tomorrow will be .
, % of the Moon is Illuminated

Today's Extremes

State Highs State Lows

Community

WunderPhotos

Upload Photos

1,843,342 photos uploaded!

WunderBlogs® & News

Nearby

Air Quality

  Air Quality AQ Index Pollutant
Not available.

Snow Depth

Station Depth Elevation

Earthquake Activity

City Distance Mag. Time & Date
Minimum magnitude displayed is 2.5.

Coastal Water Temperatures

Place Temperature

Stations

Nearby Weather Stations

Station Location Temp. Windchill Dew Point Humidity Wind Precip. Elev Updated Type